Time;durP1;ratioP1;P1;durP2;ratioP2;P2;SDS_P1;SDS_P2;PMS_P1;PMS_P2;Temp;Humidity;BMP_temperature;BMP_pressure;BME280_temperature;BME280_humidity;BME280_pressure;Samples;Min_cycle;Max_cycle;Signal;HPM_P1;HPM_P2
2024/01/29 00:02:02;;;;;;;3.08;1.60;;;6.10;99.90;;;;;;5068649;28;20028;-63
2024/01/29 00:04:28;;;;;;;3.78;1.65;;;6.10;99.90;;;;;;5065399;28;20032;-63
2024/01/29 00:06:54;;;;;;;4.07;1.75;;;6.10;99.90;;;;;;5063317;28;20032;-63
2024/01/29 00:09:20;;;;;;;6.45;2.10;;;6.10;99.90;;;;;;5070037;28;20096;-63
2024/01/29 00:11:45;;;;;;;4.45;1.65;;;6.20;99.90;;;;;;5065700;28;20064;-63
2024/01/29 00:14:11;;;;;;;7.90;2.65;;;6.20;99.90;;;;;;5064341;28;20020;-63
2024/01/29 00:16:36;;;;;;;3.22;1.90;;;6.20;99.90;;;;;;5055141;28;20039;-62
2024/01/29 00:19:03;;;;;;;7.15;2.10;;;6.10;99.90;;;;;;5061784;28;20024;-63
2024/01/29 00:21:29;;;;;;;4.72;1.92;;;6.10;99.90;;;;;;5060334;28;20039;-63
2024/01/29 00:23:56;;;;;;;4.07;1.50;;;6.10;99.90;;;;;;5063456;28;20425;-62
2024/01/29 00:26:21;;;;;;;4.25;1.50;;;6.00;99.90;;;;;;5062632;28;20031;-63
2024/01/29 00:28:47;;;;;;;7.68;2.20;;;6.00;99.90;;;;;;5060353;28;20054;-62
2024/01/29 00:31:14;;;;;;;4.22;2.03;;;6.00;99.90;;;;;;5061137;28;20478;-62
2024/01/29 00:33:39;;;;;;;3.65;1.90;;;5.90;99.90;;;;;;5060685;28;20074;-62
2024/01/29 00:36:05;;;;;;;3.80;2.05;;;5.90;99.90;;;;;;5061168;28;20028;-63
2024/01/29 00:38:30;;;;;;;4.45;2.25;;;5.90;99.90;;;;;;5062018;28;20027;-62
2024/01/29 00:40:56;;;;;;;6.22;2.10;;;5.90;99.90;;;;;;5060740;28;20061;-62
2024/01/29 00:43:22;;;;;;;5.95;1.95;;;5.90;99.90;;;;;;5062741;28;20502;-62
2024/01/29 00:45:47;;;;;;;3.92;1.63;;;5.90;99.90;;;;;;5063714;28;20411;-62
2024/01/29 00:48:13;;;;;;;2.97;1.80;;;5.90;99.90;;;;;;5062058;28;20120;-63
2024/01/29 00:50:38;;;;;;;5.05;1.58;;;5.90;99.90;;;;;;5064263;28;20027;-63
2024/01/29 00:53:05;;;;;;;4.82;2.22;;;5.80;99.90;;;;;;5063850;28;20036;-62
2024/01/29 00:55:31;;;;;;;5.10;1.80;;;5.80;99.90;;;;;;5063044;28;20063;-63
2024/01/29 00:57:57;;;;;;;5.45;1.80;;;5.80;99.90;;;;;;5063184;28;20052;-63
2024/01/29 01:00:22;;;;;;;5.18;2.40;;;5.80;99.90;;;;;;5062464;28;20033;-63
2024/01/29 01:02:48;;;;;;;3.83;1.83;;;5.70;99.90;;;;;;5061232;28;20039;-62
2024/01/29 01:05:13;;;;;;;3.60;1.42;;;5.70;99.90;;;;;;5064462;28;20458;-63
2024/01/29 01:07:39;;;;;;;8.55;1.88;;;5.60;99.90;;;;;;5068154;28;20024;-62
2024/01/29 01:10:05;;;;;;;4.28;1.58;;;5.60;99.90;;;;;;5066855;28;20028;-62
2024/01/29 01:12:30;;;;;;;4.28;1.63;;;5.70;99.90;;;;;;5066230;28;20033;-62
2024/01/29 01:14:56;;;;;;;3.63;1.75;;;5.70;99.90;;;;;;5065097;28;20111;-62
2024/01/29 01:17:21;;;;;;;6.38;1.65;;;5.70;99.90;;;;;;5065253;28;20037;-62
2024/01/29 01:19:47;;;;;;;4.55;1.65;;;5.60;99.90;;;;;;5070121;28;20529;-62
2024/01/29 01:22:14;;;;;;;4.78;1.98;;;5.70;99.90;;;;;;5069431;28;20093;-62
2024/01/29 01:24:40;;;;;;;4.22;2.03;;;5.60;99.90;;;;;;5068509;28;20082;-62
2024/01/29 01:27:05;;;;;;;4.18;1.90;;;5.60;99.90;;;;;;5066603;28;20119;-62
2024/01/29 01:29:31;;;;;;;7.88;1.88;;;5.50;99.90;;;;;;5065187;28;20090;-62
2024/01/29 01:31:56;;;;;;;3.78;1.80;;;5.50;99.90;;;;;;5066175;28;20127;-63
2024/01/29 01:34:22;;;;;;;2.75;1.50;;;5.50;99.90;;;;;;5067278;28;20029;-62
2024/01/29 01:36:47;;;;;;;4.22;1.77;;;5.50;99.90;;;;;;5067069;28;20064;-61
2024/01/29 01:39:13;;;;;;;4.15;2.03;;;5.60;99.90;;;;;;5069012;28;20048;-61
2024/01/29 01:41:39;;;;;;;4.00;1.55;;;5.60;99.90;;;;;;5067014;28;20036;-62
2024/01/29 01:44:04;;;;;;;3.78;1.60;;;5.60;99.90;;;;;;5065255;28;20107;-62
2024/01/29 01:46:30;;;;;;;4.85;1.58;;;5.60;99.90;;;;;;5063515;28;20028;-62
2024/01/29 01:48:56;;;;;;;4.05;1.70;;;5.70;99.90;;;;;;5067193;28;20532;-62
2024/01/29 01:51:23;;;;;;;4.03;1.88;;;5.70;99.90;;;;;;5067577;28;20040;-62
2024/01/29 01:53:54;;;;;;;5.47;1.77;;;5.70;99.90;;;;;;5063344;28;20066;-62
2024/01/29 01:56:20;;;;;;;6.03;2.17;;;5.80;99.90;;;;;;5065039;28;20013;-61
2024/01/29 01:58:46;;;;;;;2.75;1.35;;;5.90;99.90;;;;;;5046869;28;20032;-62
2024/01/29 02:01:15;;;;;;;5.78;1.90;;;5.90;99.90;;;;;;5041865;28;20464;-64
2024/01/29 02:03:42;;;;;;;3.00;1.48;;;5.90;99.90;;;;;;5048741;28;20478;-62
2024/01/29 02:06:09;;;;;;;2.72;1.60;;;5.90;99.90;;;;;;5053817;28;20029;-62
2024/01/29 02:08:35;;;;;;;5.68;1.83;;;5.90;99.90;;;;;;5058454;22;20044;-80
2024/01/29 02:11:01;;;;;;;3.88;1.90;;;6.00;99.90;;;;;;5055109;28;20099;-80
2024/01/29 02:13:26;;;;;;;3.42;1.67;;;6.00;99.90;;;;;;5044518;28;20040;-80
2024/01/29 02:15:52;;;;;;;4.78;1.70;;;6.00;99.90;;;;;;5041001;28;20139;-81
2024/01/29 02:18:18;;;;;;;4.55;1.75;;;6.00;99.90;;;;;;5052701;28;20063;-80
2024/01/29 02:20:43;;;;;;;4.65;2.10;;;6.10;99.90;;;;;;5043759;28;20033;-81
2024/01/29 02:23:09;;;;;;;4.68;1.60;;;6.00;99.90;;;;;;5039223;28;20414;-79
2024/01/29 02:25:35;;;;;;;2.60;1.65;;;6.10;99.90;;;;;;5039576;28;20030;-81
2024/01/29 02:28:01;;;;;;;6.03;1.70;;;6.10;99.90;;;;;;5034747;28;20067;-81
2024/01/29 02:30:27;;;;;;;5.65;1.85;;;6.10;99.90;;;;;;5037045;28;20017;-80
2024/01/29 02:32:53;;;;;;;6.85;1.60;;;6.00;99.90;;;;;;5041627;28;20043;-81
2024/01/29 02:35:18;;;;;;;7.43;2.00;;;6.00;99.90;;;;;;5041576;28;20121;-80
2024/01/29 02:37:44;;;;;;;5.03;2.10;;;6.00;99.90;;;;;;5039577;28;20036;-81
2024/01/29 02:40:10;;;;;;;4.63;1.73;;;6.00;99.90;;;;;;5038783;28;20096;-79
2024/01/29 02:42:36;;;;;;;3.58;2.10;;;6.00;99.90;;;;;;5040897;28;20041;-81
2024/01/29 02:45:04;;;;;;;1.92;1.33;;;5.90;99.90;;;;;;5039571;28;20026;-79
2024/01/29 02:47:30;;;;;;;4.53;1.65;;;5.90;99.90;;;;;;5041005;28;20036;-80
2024/01/29 02:49:55;;;;;;;4.50;1.45;;;5.90;99.90;;;;;;5032722;28;20026;-81
2024/01/29 02:52:21;;;;;;;2.85;1.92;;;5.90;99.90;;;;;;5040018;28;20028;-80
2024/01/29 02:54:47;;;;;;;4.68;2.00;;;5.80;99.90;;;;;;5037244;28;20025;-80
2024/01/29 02:57:13;;;;;;;4.03;2.05;;;5.80;99.90;;;;;;5038403;28;20052;-81
2024/01/29 02:59:39;;;;;;;2.83;2.00;;;5.80;99.90;;;;;;5040019;28;20071;-81
2024/01/29 03:02:06;;;;;;;3.55;1.70;;;5.80;99.90;;;;;;5036907;28;20036;-80
2024/01/29 03:04:32;;;;;;;4.15;2.00;;;5.80;99.90;;;;;;5038128;28;20029;-81
2024/01/29 03:06:58;;;;;;;3.72;1.90;;;5.80;99.90;;;;;;5040754;28;20034;-81
2024/01/29 03:09:23;;;;;;;4.00;1.70;;;5.90;99.90;;;;;;5035554;28;20032;-81
2024/01/29 03:11:49;;;;;;;4.18;1.80;;;5.80;99.90;;;;;;5036850;28;20549;-80
2024/01/29 03:14:15;;;;;;;4.97;1.77;;;5.80;99.90;;;;;;5037504;28;20732;-80
2024/01/29 03:16:41;;;;;;;3.45;1.65;;;5.80;99.90;;;;;;5042308;28;20051;-81
2024/01/29 03:19:07;;;;;;;2.55;1.58;;;5.70;99.90;;;;;;5038892;28;20025;-80
2024/01/29 03:21:33;;;;;;;4.85;2.00;;;5.80;99.90;;;;;;5053159;28;20037;-81
2024/01/29 03:23:59;;;;;;;5.03;1.95;;;5.80;99.90;;;;;;5036569;28;20075;-80
2024/01/29 03:26:25;;;;;;;4.93;2.17;;;5.80;99.90;;;;;;5033620;28;20021;-80
2024/01/29 03:28:51;;;;;;;3.53;1.90;;;5.80;99.90;;;;;;5033545;28;20040;-81
2024/01/29 03:31:16;;;;;;;5.90;2.10;;;5.80;99.90;;;;;;5025234;28;20026;-82
2024/01/29 03:33:42;;;;;;;4.32;1.77;;;5.80;99.90;;;;;;5032287;28;20077;-83
2024/01/29 03:36:08;;;;;;;4.70;2.00;;;5.80;99.90;;;;;;5032741;28;20254;-80
2024/01/29 03:38:34;;;;;;;4.20;1.88;;;5.80;99.90;;;;;;5031682;28;20027;-81
2024/01/29 03:41:00;;;;;;;3.30;1.48;;;5.80;99.90;;;;;;5065323;23;20051;-64
2024/01/29 03:43:26;;;;;;;5.88;1.83;;;5.80;99.90;;;;;;5066425;28;20020;-65
2024/01/29 03:45:53;;;;;;;7.32;1.75;;;5.70;99.90;;;;;;5071387;28;20025;-67
2024/01/29 03:48:19;;;;;;;4.53;2.47;;;5.70;99.90;;;;;;5057421;28;20052;-64
2024/01/29 03:50:44;;;;;;;5.78;2.13;;;5.70;99.90;;;;;;5050469;28;20056;-64
2024/01/29 03:53:10;;;;;;;5.18;1.80;;;5.60;99.90;;;;;;5050869;28;20090;-65
2024/01/29 03:55:35;;;;;;;4.25;2.15;;;5.60;99.90;;;;;;5047547;28;20087;-65
2024/01/29 03:58:01;;;;;;;6.55;1.73;;;5.50;99.90;;;;;;5045471;28;20487;-64
2024/01/29 04:00:29;;;;;;;3.13;1.88;;;5.50;99.90;;;;;;5058070;28;20063;-66
2024/01/29 04:02:55;;;;;;;4.30;2.20;;;5.50;99.90;;;;;;5054092;28;20060;-64
2024/01/29 04:05:20;;;;;;;3.67;2.20;;;5.50;99.90;;;;;;5059566;28;20060;-65
2024/01/29 04:07:46;;;;;;;4.32;1.92;;;5.40;99.90;;;;;;5052918;28;20394;-67
2024/01/29 04:10:12;;;;;;;4.55;2.05;;;5.30;99.90;;;;;;5049756;28;20032;-64
2024/01/29 04:12:37;;;;;;;5.63;2.25;;;5.30;99.90;;;;;;5051030;28;20017;-64
2024/01/29 04:15:03;;;;;;;5.32;1.95;;;5.30;99.90;;;;;;5048241;28;20029;-65
2024/01/29 04:17:29;;;;;;;4.82;1.92;;;5.30;99.90;;;;;;5049337;28;20036;-64
2024/01/29 04:19:55;;;;;;;6.15;2.40;;;5.30;99.90;;;;;;5032671;28;20053;-65
2024/01/29 04:22:21;;;;;;;4.88;1.65;;;5.30;99.90;;;;;;5049598;28;20032;-64
2024/01/29 04:24:46;;;;;;;4.93;2.10;;;5.20;99.90;;;;;;5049076;28;20120;-64
2024/01/29 04:27:12;;;;;;;4.30;2.03;;;5.30;99.90;;;;;;5048704;28;20052;-64
2024/01/29 04:29:38;;;;;;;12.30;2.33;;;5.30;99.90;;;;;;5050272;28;20371;-65
2024/01/29 04:32:04;;;;;;;5.18;1.67;;;5.40;99.90;;;;;;5046865;28;20082;-65
2024/01/29 04:34:29;;;;;;;5.47;1.83;;;5.40;99.90;;;;;;5044689;28;20028;-65
2024/01/29 04:36:55;;;;;;;5.38;2.00;;;5.40;99.90;;;;;;5050358;28;20032;-64
2024/01/29 04:39:21;;;;;;;5.25;2.00;;;5.30;99.90;;;;;;5048146;28;20040;-64
2024/01/29 04:41:46;;;;;;;3.05;1.73;;;5.40;99.90;;;;;;5048021;28;20124;-64
2024/01/29 04:44:14;;;;;;;5.75;2.13;;;5.30;99.90;;;;;;5050180;28;20021;-65
2024/01/29 04:46:40;;;;;;;8.90;2.17;;;5.40;99.90;;;;;;5050421;28;20025;-65
2024/01/29 04:49:06;;;;;;;4.82;2.00;;;5.30;99.90;;;;;;5045747;28;20127;-63
2024/01/29 04:51:31;;;;;;;5.65;2.00;;;5.20;99.90;;;;;;5052052;28;20067;-64
2024/01/29 04:53:57;;;;;;;6.32;2.13;;;5.20;99.90;;;;;;5051155;28;20680;-65
2024/01/29 04:56:22;;;;;;;3.80;1.60;;;5.10;99.90;;;;;;5053130;28;20086;-65
2024/01/29 04:58:48;;;;;;;2.97;1.77;;;5.20;99.90;;;;;;5053526;28;20066;-63
2024/01/29 05:01:14;;;;;;;7.65;2.20;;;5.10;99.90;;;;;;5052760;28;20034;-64
2024/01/29 05:03:40;;;;;;;6.03;2.17;;;5.10;99.90;;;;;;5054813;28;20029;-65
2024/01/29 05:06:06;;;;;;;5.53;2.20;;;5.10;99.90;;;;;;5053465;28;20025;-64
2024/01/29 05:08:31;;;;;;;4.10;1.75;;;5.00;99.90;;;;;;5052263;28;20490;-65
2024/01/29 05:10:57;;;;;;;4.20;1.95;;;5.00;99.90;;;;;;5053669;28;20041;-64
2024/01/29 05:13:22;;;;;;;5.15;2.53;;;5.00;99.90;;;;;;5053968;28;20497;-64
2024/01/29 05:15:48;;;;;;;7.47;2.63;;;4.90;99.90;;;;;;5051073;28;20037;-63
2024/01/29 05:18:14;;;;;;;5.13;2.28;;;4.80;99.90;;;;;;5052415;28;20128;-64
2024/01/29 05:20:41;;;;;;;3.70;2.00;;;4.80;99.90;;;;;;5050717;28;20045;-67
2024/01/29 05:23:06;;;;;;;4.95;2.22;;;4.80;99.90;;;;;;5054442;28;20072;-64
2024/01/29 05:25:32;;;;;;;5.65;2.20;;;4.80;99.90;;;;;;5030249;28;20049;-64
2024/01/29 05:27:58;;;;;;;4.03;2.22;;;4.70;99.90;;;;;;5053172;28;20412;-64
2024/01/29 05:30:24;;;;;;;3.88;1.70;;;4.70;99.90;;;;;;5051305;28;20056;-63
2024/01/29 05:32:49;;;;;;;3.92;2.00;;;4.80;99.90;;;;;;5047582;28;20115;-64
2024/01/29 05:35:15;;;;;;;3.88;2.60;;;4.80;99.90;;;;;;5054146;28;20095;-63
2024/01/29 05:37:41;;;;;;;11.65;3.00;;;4.80;99.90;;;;;;5053515;28;20021;-64
2024/01/29 05:40:09;;;;;;;5.18;3.03;;;4.80;99.90;;;;;;5051339;28;20040;-64
2024/01/29 05:42:35;;;;;;;3.40;1.90;;;4.80;99.90;;;;;;5053688;28;20029;-63
2024/01/29 05:45:00;;;;;;;9.45;2.50;;;4.80;99.90;;;;;;5051411;28;20395;-63
2024/01/29 05:47:26;;;;;;;5.07;2.13;;;4.80;99.90;;;;;;5052144;28;20029;-63
2024/01/29 05:49:51;;;;;;;9.10;2.50;;;4.70;99.90;;;;;;5053432;28;20080;-64
2024/01/29 05:52:17;;;;;;;4.43;2.58;;;4.80;99.90;;;;;;5052657;28;20033;-66
2024/01/29 05:54:42;;;;;;;9.05;2.10;;;4.70;99.90;;;;;;5053391;28;20025;-62
2024/01/29 05:57:11;;;;;;;6.22;2.45;;;4.60;99.90;;;;;;5052555;28;20033;-64
2024/01/29 05:59:40;;;;;;;5.85;2.17;;;4.60;99.90;;;;;;5050714;28;20051;-64
2024/01/29 06:02:06;;;;;;;6.25;2.30;;;4.60;99.90;;;;;;5050555;28;20124;-64
2024/01/29 06:04:32;;;;;;;5.65;2.60;;;4.50;99.90;;;;;;5052261;28;20116;-66
2024/01/29 06:06:57;;;;;;;7.15;2.50;;;4.60;99.90;;;;;;5051728;28;20445;-63
2024/01/29 06:09:23;;;;;;;5.32;2.28;;;4.50;99.90;;;;;;5051965;28;20418;-64
2024/01/29 06:11:54;;;;;;;7.60;2.45;;;4.40;99.90;;;;;;5050333;28;20033;-64
2024/01/29 06:14:20;;;;;;;6.28;2.30;;;4.30;99.90;;;;;;5051434;28;20033;-65
2024/01/29 06:16:45;;;;;;;4.30;2.55;;;4.30;99.90;;;;;;5049857;28;20029;-63
2024/01/29 06:19:15;;;;;;;9.00;2.97;;;4.30;99.90;;;;;;5051721;28;20049;-64
2024/01/29 06:21:44;;;;;;;7.97;2.78;;;4.30;99.90;;;;;;5046661;28;20156;-64
2024/01/29 06:24:10;;;;;;;5.38;2.38;;;4.30;99.90;;;;;;5049070;28;20088;-63
2024/01/29 06:26:37;;;;;;;4.90;2.38;;;4.30;99.90;;;;;;5038088;28;20103;-64
2024/01/29 06:29:03;;;;;;;3.60;2.05;;;4.30;99.90;;;;;;5051827;28;20613;-64
2024/01/29 06:31:29;;;;;;;4.38;2.38;;;4.20;99.90;;;;;;5052650;28;20059;-64
2024/01/29 06:33:55;;;;;;;6.30;2.28;;;4.10;99.90;;;;;;5053247;28;20032;-64
2024/01/29 06:36:22;;;;;;;5.35;2.70;;;4.20;99.90;;;;;;5052413;28;20075;-64
2024/01/29 06:38:47;;;;;;;3.65;2.08;;;4.30;99.90;;;;;;5052899;28;20025;-64
2024/01/29 06:41:23;;;;;;;5.70;2.75;;;4.20;99.90;;;;;;5050390;28;20457;-64
2024/01/29 06:43:49;;;;;;;6.63;3.05;;;4.20;99.90;;;;;;5045989;28;20075;-67
2024/01/29 06:46:15;;;;;;;7.10;2.70;;;4.10;99.90;;;;;;5050591;28;20087;-64
2024/01/29 06:48:40;;;;;;;6.72;2.65;;;4.10;99.90;;;;;;5047618;28;20052;-63
2024/01/29 06:51:06;;;;;;;8.95;3.17;;;4.10;99.90;;;;;;5049715;28;20032;-64
2024/01/29 06:53:34;;;;;;;5.28;2.85;;;4.10;99.90;;;;;;5052243;28;20438;-64
2024/01/29 06:56:02;;;;;;;7.43;3.30;;;4.10;99.90;;;;;;5050649;28;20079;-64
2024/01/29 06:58:28;;;;;;;5.38;2.60;;;4.10;99.90;;;;;;5051078;28;20116;-64
2024/01/29 07:00:54;;;;;;;7.32;2.95;;;4.10;99.90;;;;;;5051602;28;20535;-64
2024/01/29 07:03:20;;;;;;;10.05;3.40;;;4.10;99.90;;;;;;5050707;28;20031;-66
2024/01/29 07:05:48;;;;;;;6.22;2.92;;;4.10;99.90;;;;;;5050567;28;20402;-64
2024/01/29 07:08:13;;;;;;;5.85;2.40;;;4.10;99.90;;;;;;5045302;28;20096;-63
2024/01/29 07:10:39;;;;;;;4.63;2.65;;;4.10;99.90;;;;;;5050483;28;20013;-66
2024/01/29 07:13:05;;;;;;;7.15;2.53;;;4.00;99.90;;;;;;5051707;28;20033;-63
2024/01/29 07:15:31;;;;;;;8.13;3.13;;;3.90;99.90;;;;;;5051188;28;20043;-64
2024/01/29 07:17:57;;;;;;;7.63;3.00;;;3.90;99.90;;;;;;5050300;28;20087;-64
2024/01/29 07:20:22;;;;;;;6.53;3.15;;;3.90;99.90;;;;;;5049688;28;20438;-63
2024/01/29 07:22:48;;;;;;;6.93;2.58;;;3.90;99.90;;;;;;5052251;28;20484;-64
2024/01/29 07:25:14;;;;;;;5.15;2.78;;;3.90;99.90;;;;;;5051652;28;20051;-64
2024/01/29 07:27:39;;;;;;;4.45;2.58;;;3.90;99.90;;;;;;5029974;28;20090;-66
2024/01/29 07:30:05;;;;;;;6.28;2.65;;;3.90;99.90;;;;;;5050490;28;20493;-65
2024/01/29 07:32:31;;;;;;;4.50;2.20;;;4.00;99.90;;;;;;5042278;28;20033;-63
2024/01/29 07:34:58;;;;;;;8.35;2.83;;;4.00;99.90;;;;;;5049177;28;20032;-64
2024/01/29 07:37:24;;;;;;;5.53;2.40;;;4.10;99.90;;;;;;5050552;28;20021;-64
2024/01/29 07:39:51;;;;;;;6.32;2.75;;;4.10;99.90;;;;;;5049374;28;20040;-64
2024/01/29 07:42:16;;;;;;;6.32;2.75;;;4.20;99.90;;;;;;5051795;28;20033;-64
2024/01/29 07:44:43;;;;;;;6.90;3.50;;;4.30;99.90;;;;;;5046199;28;20082;-64
2024/01/29 07:47:08;;;;;;;13.10;5.22;;;4.30;99.90;;;;;;5045721;28;20036;-64
2024/01/29 07:49:34;;;;;;;10.18;5.57;;;4.40;99.90;;;;;;5050750;28;20028;-64
2024/01/29 07:51:59;;;;;;;25.33;10.60;;;4.40;99.90;;;;;;5051616;28;20475;-65
2024/01/29 07:54:25;;;;;;;26.52;10.35;;;4.50;99.90;;;;;;5050787;28;20070;-64
2024/01/29 07:56:50;;;;;;;11.02;5.90;;;4.50;99.90;;;;;;5050959;28;20033;-64
2024/01/29 07:59:16;;;;;;;9.75;5.10;;;4.50;99.90;;;;;;5049209;28;20120;-63
2024/01/29 08:01:44;;;;;;;6.60;3.25;;;4.60;99.90;;;;;;5045832;28;20467;-64
2024/01/29 08:04:10;;;;;;;10.20;5.30;;;4.60;99.90;;;;;;5050178;28;20127;-64
2024/01/29 08:06:36;;;;;;;20.75;9.57;;;4.60;99.90;;;;;;5046746;28;20112;-63
2024/01/29 08:09:04;;;;;;;7.00;3.88;;;4.60;99.90;;;;;;5057799;22;20584;-59
2024/01/29 08:11:30;;;;;;;40.05;17.17;;;4.70;99.90;;;;;;5026493;28;20577;-58
2024/01/29 08:13:56;;;;;;;38.05;15.18;;;4.70;99.90;;;;;;5028532;28;20075;-59
2024/01/29 08:16:22;;;;;;;21.02;8.57;;;4.80;99.90;;;;;;5034013;28;20028;-58
2024/01/29 08:18:47;;;;;;;27.38;15.60;;;4.80;99.90;;;;;;5029074;28;20055;-59
2024/01/29 08:21:13;;;;;;;11.98;5.38;;;4.90;99.90;;;;;;5029778;28;20088;-58
2024/01/29 08:23:39;;;;;;;11.52;5.95;;;5.00;99.90;;;;;;5028525;28;20036;-59
2024/01/29 08:26:05;;;;;;;23.35;12.85;;;5.00;99.90;;;;;;5029076;28;20110;-59
2024/01/29 08:28:30;;;;;;;8.05;4.78;;;5.10;99.90;;;;;;4999331;28;20060;-59
2024/01/29 08:30:58;;;;;;;8.63;4.38;;;5.20;99.90;;;;;;5026950;28;20036;-58
2024/01/29 08:33:25;;;;;;;8.48;5.40;;;5.20;99.90;;;;;;5029148;28;20483;-59
2024/01/29 08:35:51;;;;;;;11.10;6.40;;;5.30;99.90;;;;;;5028917;28;20033;-59
2024/01/29 08:38:17;;;;;;;9.60;5.05;;;5.40;99.90;;;;;;5028837;28;20026;-59
2024/01/29 08:40:42;;;;;;;6.97;3.50;;;5.50;99.90;;;;;;5027165;28;20368;-58
2024/01/29 08:43:08;;;;;;;7.10;4.65;;;5.50;99.90;;;;;;5023917;28;20450;-58
2024/01/29 08:45:35;;;;;;;8.07;4.68;;;5.60;99.90;;;;;;5027574;28;20065;-58
2024/01/29 08:48:03;;;;;;;11.25;6.60;;;5.60;99.90;;;;;;5028805;28;20072;-58
2024/01/29 08:50:30;;;;;;;5.97;3.85;;;5.80;99.90;;;;;;5028894;28;20793;-59
2024/01/29 08:52:55;;;;;;;7.97;3.92;;;5.80;99.90;;;;;;5029965;28;20034;-59
2024/01/29 08:55:22;;;;;;;6.80;3.63;;;5.80;99.90;;;;;;5027842;28;20013;-58
2024/01/29 08:57:48;;;;;;;8.98;5.00;;;5.80;99.90;;;;;;5025126;28;20044;-59
2024/01/29 09:00:14;;;;;;;15.85;6.97;;;5.90;99.90;;;;;;5026448;28;20029;-59
2024/01/29 09:02:41;;;;;;;6.15;3.47;;;5.90;99.90;;;;;;5027601;28;20121;-58
2024/01/29 09:05:07;;;;;;;6.03;3.50;;;5.90;99.90;;;;;;5029126;28;20025;-59
2024/01/29 09:07:33;;;;;;;6.97;3.38;;;6.00;99.90;;;;;;5028476;28;20514;-59
2024/01/29 09:09:58;;;;;;;5.70;3.10;;;6.10;99.90;;;;;;5027046;28;20068;-59
2024/01/29 09:12:24;;;;;;;10.50;3.75;;;6.10;99.90;;;;;;5026062;28;20108;-59
2024/01/29 09:14:50;;;;;;;5.43;2.92;;;6.20;99.90;;;;;;5029032;28;20017;-59
2024/01/29 09:17:15;;;;;;;6.53;3.03;;;6.30;99.90;;;;;;5029043;28;20037;-59
2024/01/29 09:19:43;;;;;;;8.63;3.35;;;6.30;99.90;;;;;;5029084;28;20026;-58
2024/01/29 09:22:08;;;;;;;5.38;3.20;;;6.40;99.90;;;;;;5029511;28;20049;-59
2024/01/29 09:24:34;;;;;;;7.53;4.80;;;6.50;99.90;;;;;;5027955;28;20399;-58
2024/01/29 09:26:59;;;;;;;15.80;5.50;;;6.60;99.90;;;;;;5021854;28;20554;-59
2024/01/29 09:29:25;;;;;;;13.95;3.55;;;6.60;99.90;;;;;;5004128;28;20040;-59
2024/01/29 09:31:51;;;;;;;6.30;4.07;;;6.70;99.90;;;;;;5028979;28;20040;-59
2024/01/29 09:34:16;;;;;;;8.55;4.15;;;6.70;99.90;;;;;;5023777;28;20025;-60
2024/01/29 09:36:42;;;;;;;6.78;3.78;;;6.70;99.90;;;;;;5029076;28;20026;-58
2024/01/29 09:39:07;;;;;;;7.05;4.22;;;6.80;99.90;;;;;;5030457;28;20503;-59
2024/01/29 09:41:34;;;;;;;7.10;4.18;;;6.90;99.90;;;;;;5030097;28;20033;-59
2024/01/29 09:44:04;;;;;;;7.13;3.88;;;7.00;99.90;;;;;;5021844;28;20448;-58
2024/01/29 09:46:31;;;;;;;10.18;5.28;;;7.10;99.90;;;;;;5029748;28;20436;-58
2024/01/29 09:48:58;;;;;;;11.20;4.13;;;7.20;99.90;;;;;;5031469;28;20025;-59
2024/01/29 09:51:26;;;;;;;9.38;5.22;;;7.20;99.90;;;;;;5032154;28;20029;-59
2024/01/29 09:53:53;;;;;;;10.55;6.00;;;7.30;99.90;;;;;;5030795;28;20053;-59
2024/01/29 09:56:19;;;;;;;10.38;4.55;;;7.60;99.90;;;;;;5028742;28;20403;-60
2024/01/29 09:58:44;;;;;;;10.80;3.60;;;7.80;99.90;;;;;;5032566;28;20018;-60
2024/01/29 10:01:12;;;;;;;11.18;3.80;;;8.00;99.90;;;;;;5027777;28;20065;-60
2024/01/29 10:03:39;;;;;;;6.75;3.80;;;8.20;99.90;;;;;;5025692;28;20095;-60
2024/01/29 10:06:06;;;;;;;7.97;4.20;;;8.40;99.90;;;;;;5028428;28;20030;-59
2024/01/29 10:08:32;;;;;;;8.23;4.07;;;8.70;99.90;;;;;;5029476;28;20426;-60
2024/01/29 10:10:59;;;;;;;12.60;6.32;;;8.90;99.90;;;;;;5021158;28;20029;-59
2024/01/29 10:13:25;;;;;;;12.63;4.63;;;8.90;99.90;;;;;;5028336;28;20032;-59
2024/01/29 10:15:53;;;;;;;7.25;3.58;;;9.00;99.90;;;;;;5033717;28;20022;-59
2024/01/29 10:18:19;;;;;;;7.70;3.60;;;9.10;99.90;;;;;;5025807;28;20190;-59
2024/01/29 10:20:45;;;;;;;5.65;3.40;;;9.10;99.90;;;;;;5030574;28;20123;-59
2024/01/29 10:23:10;;;;;;;11.38;5.63;;;9.10;99.90;;;;;;5028719;28;20112;-59
2024/01/29 10:25:38;;;;;;;11.80;4.80;;;9.10;99.90;;;;;;5023790;28;20021;-59
2024/01/29 10:28:11;;;;;;;4.97;2.78;;;9.20;99.90;;;;;;5005867;28;20452;-59
2024/01/29 10:30:41;;;;;;;10.82;6.18;;;9.30;99.90;;;;;;5026693;28;20026;-59
2024/01/29 10:33:07;;;;;;;9.05;5.28;;;9.40;99.90;;;;;;5029824;28;20380;-59
2024/01/29 10:35:33;;;;;;;11.20;5.55;;;9.50;99.90;;;;;;5030182;28;20586;-59
2024/01/29 10:38:04;;;;;;;23.48;11.80;;;9.60;99.90;;;;;;5030490;28;20172;-60
2024/01/29 10:40:31;;;;;;;7.07;3.63;;;9.70;99.90;;;;;;5030880;28;20165;-59
2024/01/29 10:43:01;;;;;;;8.15;3.40;;;9.70;99.90;;;;;;5023560;28;20428;-59
2024/01/29 10:45:27;;;;;;;8.27;3.47;;;9.80;99.90;;;;;;5025353;28;20060;-59
2024/01/29 10:48:29;;;;;;;9.57;5.65;;;9.90;99.90;;;;;;5031008;28;20033;-58
2024/01/29 10:50:55;;;;;;;8.00;3.42;;;10.00;99.90;;;;;;4930823;29;20024;-59
2024/01/29 10:53:22;;;;;;;5.78;3.45;;;10.10;99.90;;;;;;5009754;28;20499;-59
2024/01/29 10:55:50;;;;;;;8.00;3.15;;;10.20;99.90;;;;;;5028419;28;20125;-59
2024/01/29 10:58:17;;;;;;;7.85;3.40;;;10.20;99.90;;;;;;5023190;28;20391;-59
2024/01/29 11:00:44;;;;;;;6.30;2.95;;;10.30;99.90;;;;;;5030527;28;20026;-59
2024/01/29 11:03:14;;;;;;;7.88;4.88;;;10.40;99.90;;;;;;5030317;28;20029;-59
2024/01/29 11:05:44;;;;;;;6.40;4.35;;;10.50;99.90;;;;;;5027114;28;20411;-60
2024/01/29 11:08:17;;;;;;;7.07;4.00;;;10.50;99.90;;;;;;5029581;28;20040;-59
2024/01/29 11:10:43;;;;;;;7.35;3.10;;;10.50;99.90;;;;;;5022030;28;20108;-60
2024/01/29 11:13:11;;;;;;;8.57;3.72;;;10.60;99.90;;;;;;5024623;28;20156;-59
2024/01/29 11:15:36;;;;;;;7.70;3.50;;;10.70;99.90;;;;;;5030312;28;20021;-59
2024/01/29 11:18:03;;;;;;;5.90;3.45;;;10.80;99.90;;;;;;5030911;28;20021;-59
2024/01/29 11:20:32;;;;;;;8.07;3.50;;;10.80;99.90;;;;;;5028777;28;20534;-59
2024/01/29 11:22:57;;;;;;;6.90;3.67;;;10.80;99.90;;;;;;5024403;28;20034;-59
2024/01/29 11:25:27;;;;;;;5.70;3.05;;;10.90;99.90;;;;;;5033017;28;20029;-60
2024/01/29 11:27:55;;;;;;;9.35;3.75;;;10.90;99.90;;;;;;5026269;28;20507;-58
2024/01/29 11:30:23;;;;;;;9.55;4.25;;;11.00;99.90;;;;;;4994123;28;20096;-58
2024/01/29 11:32:50;;;;;;;34.75;12.75;;;11.00;99.90;;;;;;5030716;28;20034;-59
2024/01/29 11:35:26;;;;;;;20.40;8.23;;;11.10;99.90;;;;;;5030038;28;20025;-59
2024/01/29 11:37:53;;;;;;;20.23;7.45;;;11.20;99.90;;;;;;5029916;28;20033;-59
2024/01/29 11:40:38;;;;;;;5.78;2.95;;;11.10;99.90;;;;;;5030832;28;20104;-60
2024/01/29 11:43:11;;;;;;;9.02;4.35;;;11.10;99.90;;;;;;5027430;28;20135;-59
2024/01/29 11:45:37;;;;;;;14.00;6.47;;;11.10;99.90;;;;;;5029717;28;20466;-59
2024/01/29 11:48:09;;;;;;;9.40;4.40;;;11.10;99.90;;;;;;5030102;28;20064;-59
2024/01/29 11:50:35;;;;;;;10.98;6.25;;;11.10;99.90;;;;;;5027299;28;20032;-60
2024/01/29 11:53:02;;;;;;;5.22;3.28;;;11.10;99.90;;;;;;5026691;28;20029;-61
2024/01/29 11:55:27;;;;;;;7.88;5.00;;;11.10;99.90;;;;;;5023805;28;20105;-59
2024/01/29 11:57:53;;;;;;;11.48;6.78;;;11.20;99.90;;;;;;5028342;28;20519;-59
2024/01/29 12:00:19;;;;;;;17.52;10.48;;;11.30;99.90;;;;;;5025311;28;20039;-60
2024/01/29 12:02:48;;;;;;;11.57;5.22;;;11.40;99.90;;;;;;5024678;28;20116;-59
2024/01/29 12:05:18;;;;;;;8.52;4.10;;;11.40;99.90;;;;;;5026529;28;20383;-59
2024/01/29 12:07:48;;;;;;;10.27;4.65;;;11.60;99.90;;;;;;5023961;28;20030;-60
2024/01/29 12:10:15;;;;;;;9.63;4.35;;;11.60;99.90;;;;;;5020984;28;20040;-59
2024/01/29 12:12:40;;;;;;;14.65;6.80;;;11.70;99.90;;;;;;5025086;28;20028;-60
2024/01/29 12:15:08;;;;;;;13.75;5.65;;;11.70;99.90;;;;;;5026196;28;20029;-60
2024/01/29 12:17:39;;;;;;;18.20;7.72;;;11.60;99.90;;;;;;5025283;28;20534;-60
2024/01/29 12:20:05;;;;;;;39.25;14.55;;;11.60;99.90;;;;;;5025805;28;20055;-60
2024/01/29 12:22:32;;;;;;;11.48;5.43;;;11.60;99.90;;;;;;5024364;28;20368;-59
2024/01/29 12:24:59;;;;;;;11.13;5.22;;;11.70;99.90;;;;;;5022046;28;21202;-60
2024/01/29 12:27:25;;;;;;;32.42;13.68;;;11.80;99.90;;;;;;5025297;28;20041;-59
2024/01/29 12:29:53;;;;;;;32.22;13.57;;;11.90;99.90;;;;;;5012182;28;20045;-60
2024/01/29 12:32:20;;;;;;;14.20;6.45;;;12.00;99.90;;;;;;5023701;28;20029;-60
2024/01/29 12:34:47;;;;;;;48.92;20.15;;;12.10;99.90;;;;;;5021542;28;20550;-60
2024/01/29 12:37:21;;;;;;;21.55;8.40;;;12.10;99.90;;;;;;5026865;28;20109;-60
2024/01/29 12:39:53;;;;;;;57.17;20.17;;;12.20;99.90;;;;;;5029442;28;20038;-59
2024/01/29 12:42:20;;;;;;;74.63;25.45;;;12.20;99.90;;;;;;5029923;28;20021;-60
2024/01/29 12:44:47;;;;;;;53.30;20.25;;;12.20;99.90;;;;;;5022022;28;20598;-58
2024/01/29 12:47:14;;;;;;;23.55;8.02;;;12.20;99.90;;;;;;5021018;28;20038;-60
2024/01/29 12:49:39;;;;;;;7.25;3.85;;;12.20;99.90;;;;;;5021401;28;20045;-60